Time;durP1;ratioP1;P1;durP2;ratioP2;P2;SDS_P1;SDS_P2;PMS_P1;PMS_P2;Temp;Humidity;BMP_temperature;BMP_pressure;BME280_temperature;BME280_humidity;BME280_pressure;Samples;Min_cycle;Max_cycle;Signal;HPM_P1;HPM_P2
2024/01/29 00:00:33;;;;;;;143.82;62.78;;;;;;;-144.47;100.00;61586.06;5025945;28;20069;-81
2024/01/29 00:02:59;;;;;;;148.82;64.07;;;;;;;-144.47;100.00;61586.06;5071232;28;20045;-79
2024/01/29 00:05:30;;;;;;;161.27;62.53;;;;;;;-144.47;100.00;61586.06;5071383;28;20068;-79
2024/01/29 00:07:55;;;;;;;156.38;65.10;;;;;;;-144.47;100.00;61586.06;5078102;28;20036;-79
2024/01/29 00:10:25;;;;;;;151.45;63.30;;;;;;;-144.47;100.00;61586.06;5060531;28;20049;-80
2024/01/29 00:12:51;;;;;;;179.77;64.93;;;;;;;-144.47;100.00;61586.06;5073497;28;20035;-80
2024/01/29 00:15:21;;;;;;;165.40;60.67;;;;;;;-144.47;100.00;61586.06;5082787;28;20052;-78
2024/01/29 00:17:46;;;;;;;156.63;61.35;;;;;;;-144.47;100.00;61586.06;5082329;28;20104;-79
2024/01/29 00:20:16;;;;;;;158.50;59.58;;;;;;;-144.47;100.00;61586.06;5081518;28;20025;-79
2024/01/29 00:22:42;;;;;;;137.25;61.13;;;;;;;-144.47;100.00;61586.06;5061195;28;20542;-79
2024/01/29 00:25:09;;;;;;;178.70;63.15;;;;;;;-144.47;100.00;61586.06;5071093;28;20025;-79
2024/01/29 00:27:38;;;;;;;133.95;60.70;;;;;;;-144.47;100.00;61586.06;5057583;28;20032;-78
2024/01/29 00:30:09;;;;;;;121.88;61.85;;;;;;;-144.47;100.00;61586.06;5079264;28;20020;-78
2024/01/29 00:32:35;;;;;;;200.60;61.90;;;;;;;-144.47;100.00;61586.06;5077036;28;20025;-78
2024/01/29 00:35:07;;;;;;;144.95;58.25;;;;;;;-144.47;100.00;61586.06;5077892;28;20052;-78
2024/01/29 00:37:37;;;;;;;135.02;62.30;;;;;;;-144.47;100.00;61586.06;5061065;28;20565;-78
2024/01/29 00:40:08;;;;;;;153.82;59.53;;;;;;;-144.47;100.00;61586.06;5068541;28;20099;-77
2024/01/29 00:42:34;;;;;;;;;;;;;;;-144.47;100.00;61586.06;5071398;28;20021;-78
2024/01/29 00:45:03;;;;;;;119.35;59.58;;;;;;;-144.47;100.00;61586.06;5051897;28;19922;-76
2024/01/29 00:47:42;;;;;;;153.20;60.90;;;;;;;-144.47;100.00;61586.06;5076200;28;20029;-78
2024/01/29 00:50:08;;;;;;;123.90;58.35;;;;;;;-144.47;100.00;61586.06;5075335;28;20041;-78
2024/01/29 00:52:37;;;;;;;137.77;63.05;;;;;;;-144.47;100.00;61586.06;5072591;28;20029;-79
2024/01/29 00:55:03;;;;;;;136.15;60.08;;;;;;;-144.47;100.00;61586.06;5073277;28;20096;-77
2024/01/29 00:57:32;;;;;;;140.00;58.55;;;;;;;-144.47;100.00;61586.06;5070008;28;20040;-78
2024/01/29 00:59:59;;;;;;;127.97;60.30;;;;;;;-144.47;100.00;61586.06;5016721;28;20046;-77
2024/01/29 01:02:25;;;;;;;138.18;62.15;;;;;;;-144.47;100.00;61586.06;5049951;28;20036;-77
2024/01/29 01:04:53;;;;;;;117.63;57.67;;;;;;;-144.47;100.00;61586.06;5042921;28;20043;-78
2024/01/29 01:07:20;;;;;;;115.47;59.13;;;;;;;-144.47;100.00;61586.06;5046453;28;20056;-78
2024/01/29 01:09:50;;;;;;;101.10;56.35;;;;;;;-144.47;100.00;61586.06;5049923;28;20029;-78
2024/01/29 01:12:17;;;;;;;126.82;60.50;;;;;;;-144.47;100.00;61586.06;5053431;28;20041;-80
2024/01/29 01:14:43;;;;;;;136.27;58.53;;;;;;;-144.47;100.00;61586.06;5033672;28;20048;-79
2024/01/29 01:17:08;;;;;;;114.40;59.05;;;;;;;-144.47;100.00;61586.06;5049163;28;20033;-79
2024/01/29 01:19:34;;;;;;;110.20;57.05;;;;;;;-144.47;100.00;61586.06;5052763;28;20037;-80
2024/01/29 01:22:05;;;;;;;160.35;58.38;;;;;;;-144.47;100.00;61586.06;5058057;28;20029;-79
2024/01/29 01:24:30;;;;;;;116.70;55.92;;;;;;;-144.47;100.00;61586.06;5061771;28;20092;-78
2024/01/29 01:27:02;;;;;;;123.18;53.33;;;;;;;-144.47;100.00;61586.06;5057682;28;20034;-78
2024/01/29 01:29:33;;;;;;;105.22;55.72;;;;;;;-144.47;100.00;61586.06;5061018;28;20100;-79
2024/01/29 01:31:58;;;;;;;94.15;55.15;;;;;;;-144.47;100.00;61586.06;5041311;28;20092;-78
2024/01/29 01:34:28;;;;;;;109.88;55.88;;;;;;;-144.47;100.00;61586.06;5053480;28;20147;-78
2024/01/29 01:36:53;;;;;;;117.33;56.67;;;;;;;-144.47;100.00;61586.06;5054150;28;20036;-77
2024/01/29 01:39:19;;;;;;;106.38;56.50;;;;;;;-144.47;100.00;61586.06;5042939;28;20271;-78
2024/01/29 01:41:50;;;;;;;109.65;56.42;;;;;;;-144.47;100.00;61586.06;5028705;28;20037;-77
2024/01/29 01:44:18;;;;;;;121.90;56.08;;;;;;;-144.47;100.00;61586.06;5047680;28;20528;-76
2024/01/29 01:47:08;;;;;;;111.43;56.92;;;;;;;-144.47;100.00;61586.06;5033157;28;20080;-76
2024/01/29 01:49:37;;;;;;;121.47;56.47;;;;;;;-144.47;100.00;61586.06;5053896;28;20715;-78
2024/01/29 01:52:26;;;;;;;117.82;55.10;;;;;;;-144.47;100.00;61586.06;5060029;28;20033;-78
2024/01/29 01:54:55;;;;;;;111.50;54.80;;;;;;;-144.47;100.00;61586.06;5059388;28;20049;-75
2024/01/29 01:57:23;;;;;;;124.10;56.55;;;;;;;-144.47;100.00;61586.06;5044480;28;20026;-77
2024/01/29 01:59:49;;;;;;;113.88;54.50;;;;;;;-144.47;100.00;61586.06;5075354;28;20119;-79
2024/01/29 02:02:21;;;;;;;115.65;56.35;;;;;;;-144.47;100.00;61586.06;5075950;28;20029;-77
2024/01/29 02:04:50;;;;;;;107.53;57.33;;;;;;;-144.47;100.00;61586.06;5063595;28;20036;-77
2024/01/29 02:07:19;;;;;;;117.90;57.03;;;;;;;-144.47;100.00;61586.06;5049009;28;20040;-77
2024/01/29 02:09:48;;;;;;;117.75;57.42;;;;;;;-144.47;100.00;61586.06;5044368;28;20037;-79
2024/01/29 02:12:17;;;;;;;102.05;56.65;;;;;;;-144.47;100.00;61586.06;5043655;28;20029;-78
2024/01/29 02:14:48;;;;;;;111.65;55.85;;;;;;;-144.47;100.00;61586.06;5071572;28;20667;-79
2024/01/29 02:17:13;;;;;;;;;;;;;;;-144.47;100.00;61586.06;5071876;28;20032;-78
2024/01/29 02:19:42;;;;;;;128.38;57.03;;;;;;;-144.47;100.00;61586.06;5083183;28;19955;-78
2024/01/29 02:22:08;;;;;;;107.63;57.13;;;;;;;-144.47;100.00;61586.06;5034558;28;20072;-77
2024/01/29 02:24:34;;;;;;;105.28;55.55;;;;;;;-144.47;100.00;61586.06;5080956;28;20033;-80
2024/01/29 02:27:04;;;;;;;112.03;56.90;;;;;;;-144.47;100.00;61586.06;5051883;28;20122;-78
2024/01/29 02:29:29;;;;;;;107.83;55.63;;;;;;;-144.47;100.00;61586.06;5069442;28;20029;-79
2024/01/29 02:31:56;;;;;;;100.15;53.83;;;;;;;-144.47;100.00;61586.06;5073634;28;20063;-79
2024/01/29 02:34:25;;;;;;;112.05;56.10;;;;;;;-144.47;100.00;61586.06;5063377;28;20451;-77
2024/01/29 02:36:53;;;;;;;110.75;56.75;;;;;;;-144.47;100.00;61586.06;5067592;28;20024;-78
2024/01/29 02:39:20;;;;;;;105.93;54.97;;;;;;;-144.47;100.00;61586.06;5056086;28;20154;-79
2024/01/29 02:41:45;;;;;;;115.18;55.95;;;;;;;-144.47;100.00;61586.06;5075677;28;20059;-79
2024/01/29 02:44:15;;;;;;;98.60;55.35;;;;;;;-144.47;100.00;61586.06;5076430;28;20028;-80
2024/01/29 02:46:41;;;;;;;113.93;55.67;;;;;;;-144.47;100.00;61586.06;5050597;28;20400;-76
2024/01/29 02:49:10;;;;;;;100.97;56.25;;;;;;;-144.47;100.00;61586.06;5072888;28;20032;-77
2024/01/29 02:51:39;;;;;;;103.85;55.10;;;;;;;-144.47;100.00;61586.06;5038970;28;20029;-78
2024/01/29 02:54:08;;;;;;;113.82;56.38;;;;;;;-144.47;100.00;61586.06;5075313;28;20154;-77
2024/01/29 02:56:33;;;;;;;104.93;56.05;;;;;;;-144.47;100.00;61586.06;5079625;28;20043;-78
2024/01/29 02:59:04;;;;;;;100.45;55.80;;;;;;;-144.47;100.00;61586.06;5068884;28;20037;-79
2024/01/29 03:01:29;;;;;;;113.03;55.17;;;;;;;-144.47;100.00;61586.06;5015351;28;20052;-79
2024/01/29 03:04:01;;;;;;;114.53;57.00;;;;;;;-144.47;100.00;61586.06;5064381;28;20033;-78
2024/01/29 03:06:27;;;;;;;103.93;56.15;;;;;;;-144.47;100.00;61586.06;5065083;28;20072;-79
2024/01/29 03:08:55;;;;;;;113.38;54.30;;;;;;;-144.47;100.00;61586.06;5016083;28;20044;-80
2024/01/29 03:11:21;;;;;;;108.13;55.78;;;;;;;-144.47;100.00;61586.06;5032634;28;20116;-78
2024/01/29 03:13:47;;;;;;;112.20;53.90;;;;;;;-144.47;100.00;61586.06;5049282;28;20025;-78
2024/01/29 03:16:14;;;;;;;104.68;53.65;;;;;;;-144.47;100.00;61586.06;5050406;28;20044;-78
2024/01/29 03:18:45;;;;;;;104.25;55.10;;;;;;;-144.47;100.00;61586.06;5033454;28;20033;-78
2024/01/29 03:21:10;;;;;;;122.68;53.00;;;;;;;-144.47;100.00;61586.06;5067263;28;20019;-78
2024/01/29 03:23:40;;;;;;;118.25;53.83;;;;;;;-144.47;100.00;61586.06;5067377;28;20013;-78
2024/01/29 03:26:06;;;;;;;115.28;55.78;;;;;;;-144.47;100.00;61586.06;5061307;28;20029;-77
2024/01/29 03:28:31;;;;;;;112.95;53.42;;;;;;;-144.47;100.00;61586.06;5066874;28;20024;-80
2024/01/29 03:31:01;;;;;;;109.95;55.05;;;;;;;-144.47;100.00;61586.06;5050257;28;20028;-79
2024/01/29 03:33:30;;;;;;;112.65;52.75;;;;;;;-144.47;100.00;61586.06;5067533;28;20033;-80
2024/01/29 03:35:55;;;;;;;114.13;54.08;;;;;;;-144.47;100.00;61586.06;5050189;28;20515;-81
2024/01/29 03:38:26;;;;;;;106.28;54.90;;;;;;;-144.47;100.00;61586.06;5067533;28;20033;-80
2024/01/29 03:40:52;;;;;;;126.03;52.28;;;;;;;-144.47;100.00;61586.06;5067426;28;20036;-81
2024/01/29 03:43:23;;;;;;;103.70;53.67;;;;;;;-144.47;100.00;61586.06;5067797;28;20024;-79
2024/01/29 03:45:54;;;;;;;113.80;56.90;;;;;;;-144.47;100.00;61586.06;5067192;28;20024;-80
2024/01/29 03:48:21;;;;;;;116.82;52.97;;;;;;;-144.47;100.00;61586.06;5067192;28;20131;-79
2024/01/29 03:50:47;;;;;;;108.70;55.47;;;;;;;-144.47;100.00;61586.06;5067385;28;20048;-79
2024/01/29 03:53:14;;;;;;;102.05;53.92;;;;;;;-144.47;100.00;61586.06;5066652;28;20049;-79
2024/01/29 03:55:44;;;;;;;126.03;52.10;;;;;;;-144.47;100.00;61586.06;5066246;28;20017;-79
2024/01/29 03:58:14;;;;;;;114.22;55.88;;;;;;;-144.47;100.00;61586.06;5071716;28;20082;-78
2024/01/29 04:00:43;;;;;;;106.50;52.55;;;;;;;-144.47;100.00;61586.06;5064845;28;20110;-79
2024/01/29 04:03:11;;;;;;;99.13;53.75;;;;;;;-144.47;100.00;61586.06;5052013;28;20029;-76
2024/01/29 04:05:36;;;;;;;106.32;54.05;;;;;;;-144.47;100.00;61586.06;5071972;28;20043;-77
2024/01/29 04:08:03;;;;;;;122.75;52.55;;;;;;;-144.47;100.00;61586.06;5079734;28;20028;-78
2024/01/29 04:10:32;;;;;;;103.10;52.80;;;;;;;-144.47;100.00;61586.06;5035952;28;20048;-77
2024/01/29 04:12:57;;;;;;;106.28;54.95;;;;;;;-144.47;100.00;61586.06;5075169;28;20074;-78
2024/01/29 04:15:24;;;;;;;100.68;52.28;;;;;;;-144.47;100.00;61586.06;5055855;28;20129;-76
2024/01/29 04:17:51;;;;;;;99.13;52.10;;;;;;;-144.47;100.00;61586.06;5071380;28;20047;-77
2024/01/29 04:20:16;;;;;;;98.93;51.50;;;;;;;-144.47;100.00;61586.06;5071276;28;20025;-77
2024/01/29 04:22:43;;;;;;;108.80;53.50;;;;;;;-144.47;100.00;61586.06;5054361;28;20052;-78
2024/01/29 04:25:11;;;;;;;129.48;51.00;;;;;;;-144.47;100.00;61586.06;5036795;28;20178;-76
2024/01/29 04:27:37;;;;;;;115.35;52.50;;;;;;;-144.47;100.00;61586.06;5082055;28;20100;-78
2024/01/29 04:30:07;;;;;;;94.40;50.50;;;;;;;-144.47;100.00;61586.06;5054623;28;20070;-78
2024/01/29 04:32:33;;;;;;;135.27;50.63;;;;;;;-144.47;100.00;61586.06;5071296;28;20037;-78
2024/01/29 04:34:58;;;;;;;94.07;51.80;;;;;;;-144.47;100.00;61586.06;5054996;28;20043;-78
2024/01/29 04:37:25;;;;;;;134.00;50.80;;;;;;;-144.47;100.00;61586.06;5073385;28;20037;-78
2024/01/29 04:39:51;;;;;;;124.80;49.97;;;;;;;-144.47;100.00;61586.06;5072349;28;20040;-78
2024/01/29 04:42:18;;;;;;;111.80;51.30;;;;;;;-144.47;100.00;61586.06;5074408;28;20044;-79
2024/01/29 04:44:47;;;;;;;112.57;52.42;;;;;;;-144.47;100.00;61586.06;5073760;28;20033;-78
2024/01/29 04:47:13;;;;;;;121.93;51.58;;;;;;;-144.47;100.00;61586.06;5087846;28;20037;-78
2024/01/29 04:49:43;;;;;;;140.25;50.97;;;;;;;-144.47;100.00;61586.06;5056224;28;20024;-77
2024/01/29 04:52:08;;;;;;;100.90;52.33;;;;;;;-144.47;100.00;61586.06;5085636;28;20036;-78
2024/01/29 04:54:37;;;;;;;112.75;53.22;;;;;;;-144.47;100.00;61586.06;5022932;28;20079;-78
2024/01/29 04:57:07;;;;;;;142.63;50.65;;;;;;;-144.47;100.00;61586.06;5090982;28;20033;-78
2024/01/29 04:59:33;;;;;;;;;;;;;;;-144.47;100.00;61586.06;5023483;28;20049;-79
2024/01/29 05:02:01;;;;;;;110.18;50.83;;;;;;;-144.47;100.00;61586.06;5066146;28;19928;-78
2024/01/29 05:04:28;;;;;;;133.75;51.67;;;;;;;-144.47;100.00;61586.06;5050062;28;20150;-77
2024/01/29 05:06:57;;;;;;;100.38;53.00;;;;;;;-144.47;100.00;61586.06;5026754;28;20038;-78
2024/01/29 05:09:22;;;;;;;154.07;49.03;;;;;;;-144.47;100.00;61586.06;5068469;28;20051;-79
2024/01/29 05:11:48;;;;;;;126.00;49.88;;;;;;;-144.47;100.00;61586.06;5068258;28;20052;-78
2024/01/29 05:14:16;;;;;;;100.18;51.63;;;;;;;-144.47;100.00;61586.06;5033253;28;20072;-78
2024/01/29 05:16:41;;;;;;;104.43;50.42;;;;;;;-144.47;100.00;61586.06;5068397;28;20063;-78
2024/01/29 05:19:12;;;;;;;105.05;51.75;;;;;;;-144.47;100.00;61586.06;5069238;28;20032;-79
2024/01/29 05:21:37;;;;;;;118.22;52.20;;;;;;;-144.47;100.00;61586.06;5051881;28;20041;-78
2024/01/29 05:24:08;;;;;;;126.22;50.42;;;;;;;-144.47;100.00;61586.06;5068591;28;20055;-79
2024/01/29 05:26:34;;;;;;;111.05;52.85;;;;;;;-144.47;100.00;61586.06;5069019;28;20025;-77
2024/01/29 05:29:06;;;;;;;104.30;51.17;;;;;;;-144.47;100.00;61586.06;5069462;28;20025;-79
2024/01/29 05:31:38;;;;;;;137.32;52.33;;;;;;;-144.47;100.00;61586.06;5038578;28;20104;-79
2024/01/29 05:34:07;;;;;;;133.63;51.97;;;;;;;-144.47;100.00;61586.06;5054917;28;20017;-78
2024/01/29 05:36:33;;;;;;;98.85;52.08;;;;;;;-144.47;100.00;61586.06;5020180;28;20029;-79
2024/01/29 05:38:58;;;;;;;108.72;50.75;;;;;;;-144.47;100.00;61586.06;5069328;28;20399;-79
2024/01/29 05:41:37;;;;;;;107.72;47.70;;;;;;;-144.47;100.00;61586.06;5058597;28;20108;-79
2024/01/29 05:44:02;;;;;;;98.80;49.10;;;;;;;-144.47;100.00;61586.06;5070237;28;20116;-81
2024/01/29 05:46:31;;;;;;;102.80;47.50;;;;;;;-144.47;100.00;61586.06;5051071;28;20028;-77
2024/01/29 05:48:56;;;;;;;92.07;47.88;;;;;;;-144.47;100.00;61586.06;5003765;28;20048;-77
2024/01/29 05:51:22;;;;;;;95.90;49.53;;;;;;;-144.47;100.00;61586.06;5066817;28;20052;-75
2024/01/29 05:53:52;;;;;;;85.60;50.05;;;;;;;-144.47;100.00;61586.06;5048258;28;20033;-78
2024/01/29 05:56:18;;;;;;;88.93;47.72;;;;;;;-144.47;100.00;61586.06;5048872;28;20033;-77
2024/01/29 05:58:49;;;;;;;83.50;46.22;;;;;;;-144.47;100.00;61586.06;5076207;28;20100;-78
2024/01/29 06:01:14;;;;;;;127.93;46.95;;;;;;;-144.47;100.00;61586.06;5055187;28;20032;-78
2024/01/29 06:03:41;;;;;;;94.53;45.63;;;;;;;-144.47;100.00;61586.06;5080405;28;20036;-76
2024/01/29 06:06:09;;;;;;;72.97;47.33;;;;;;;-144.47;100.00;61586.06;5060587;28;20575;-77
2024/01/29 06:08:39;;;;;;;78.07;47.03;;;;;;;-144.47;100.00;61586.06;5075356;28;20021;-78
2024/01/29 06:11:05;;;;;;;105.70;47.00;;;;;;;-144.47;100.00;61586.06;5077713;28;20040;-81
2024/01/29 06:13:31;;;;;;;89.10;43.70;;;;;;;-144.47;100.00;61586.06;5083311;28;20008;-83
2024/01/29 06:16:02;;;;;;;75.53;45.88;;;;;;;-144.47;100.00;61586.06;5073185;28;20027;-84
2024/01/29 06:18:32;;;;;;;77.15;45.72;;;;;;;-144.47;100.00;61586.06;5083705;28;20008;-82
2024/01/29 06:20:58;;;;;;;87.00;48.03;;;;;;;-144.47;100.00;61586.06;5088482;28;20031;-81
2024/01/29 06:23:30;;;;;;;82.18;47.40;;;;;;;-144.47;100.00;61586.06;5085214;28;20025;-81
2024/01/29 06:25:55;;;;;;;169.40;49.60;;;;;;;-144.47;100.00;61586.06;5072098;28;20080;-84
2024/01/29 06:28:22;;;;;;;79.57;46.65;;;;;;;-144.47;100.00;61586.06;5056425;28;20047;-83
2024/01/29 06:30:48;;;;;;;79.88;46.17;;;;;;;-144.47;100.00;61586.06;5073441;28;20009;-79
2024/01/29 06:33:35;;;;;;;106.18;46.88;;;;;;;-144.47;100.00;61586.06;5056236;28;20072;-82
2024/01/29 06:36:06;;;;;;;85.03;46.42;;;;;;;-144.47;100.00;61586.06;5071299;28;20025;-83
2024/01/29 06:38:37;;;;;;;92.72;49.00;;;;;;;-144.47;100.00;61586.06;5081124;28;20017;-82
2024/01/29 06:41:03;;;;;;;98.97;49.45;;;;;;;-144.47;100.00;61586.06;5085893;28;20016;-85
2024/01/29 06:43:33;;;;;;;112.70;48.38;;;;;;;-144.47;100.00;61586.06;5077090;28;20038;-85
2024/01/29 06:45:58;;;;;;;79.93;49.90;;;;;;;-144.47;100.00;61586.06;5072136;28;20017;-84
2024/01/29 06:48:30;;;;;;;128.75;48.20;;;;;;;-144.47;100.00;61586.06;5080290;28;20028;-84
2024/01/29 06:50:55;;;;;;;113.75;48.28;;;;;;;-144.47;100.00;61586.06;5066460;28;20051;-83
2024/01/29 06:53:47;;;;;;;74.55;46.78;;;;;;;-144.47;100.00;61586.06;5080948;28;20040;-83
2024/01/29 06:56:18;;;;;;;79.72;47.08;;;;;;;-144.47;100.00;61586.06;5087607;28;20016;-84
2024/01/29 06:58:45;;;;;;;80.65;45.92;;;;;;;-144.47;100.00;61586.06;5059540;28;20067;-83
2024/01/29 07:01:40;;;;;;;112.70;45.72;;;;;;;-144.47;100.00;61586.06;5086042;28;20009;-85
2024/01/29 07:04:11;;;;;;;97.20;44.70;;;;;;;-144.47;100.00;61586.06;5086854;28;20027;-83
2024/01/29 07:06:44;;;;;;;65.05;44.03;;;;;;;-144.47;100.00;61586.06;5077472;28;20039;-85
2024/01/29 07:09:32;;;;;;;70.45;44.80;;;;;;;-144.47;100.00;61586.06;5093057;28;20047;-85
2024/01/29 07:12:34;;;;;;;71.93;45.58;;;;;;;-144.47;100.00;61586.06;5082236;28;20044;-85
2024/01/29 07:14:59;;;;;;;73.78;43.28;;;;;;;-144.47;100.00;61586.06;5075851;28;20112;-86
2024/01/29 07:17:28;;;;;;;84.20;44.78;;;;;;;-144.47;100.00;61586.06;5091049;28;20053;-84
2024/01/29 07:20:14;;;;;;;81.80;45.55;;;;;;;-144.47;100.00;61586.06;5088254;28;20017;-84
2024/01/29 07:22:45;;;;;;;67.80;43.15;;;;;;;-144.47;100.00;61586.06;5084721;28;20017;-84
2024/01/29 07:25:22;;;;;;;70.45;44.25;;;;;;;-144.47;100.00;61586.06;5079530;28;20029;-85
2024/01/29 07:27:48;;;;;;;71.97;43.72;;;;;;;-144.47;100.00;61586.06;5066260;28;20025;-84
2024/01/29 07:30:18;;;;;;;82.65;44.58;;;;;;;-144.47;100.00;61586.06;5070683;28;20041;-84
2024/01/29 07:32:44;;;;;;;118.95;46.63;;;;;;;-144.47;100.00;61586.06;5077613;28;20032;-83
2024/01/29 07:35:14;;;;;;;91.60;43.13;;;;;;;-144.47;100.00;61586.06;5094816;28;20028;-83
2024/01/29 07:37:40;;;;;;;;;;;;;;;-144.47;100.00;61586.06;5068664;28;20027;-83
2024/01/29 07:40:11;;;;;;;86.75;45.42;;;;;;;-144.47;100.00;61586.06;5086929;28;19904;-84
2024/01/29 07:42:58;;;;;;;72.68;46.72;;;;;;;-144.47;100.00;61586.06;5079397;28;20041;-84
2024/01/29 07:45:25;;;;;;;70.32;47.35;;;;;;;-144.47;100.00;61586.06;5066578;28;20028;-83
2024/01/29 07:48:34;;;;;;;65.32;42.95;;;;;;;-144.47;100.00;61586.06;5097698;28;20095;-82
2024/01/29 07:51:00;;;;;;;87.57;42.30;;;;;;;-144.47;100.00;61586.06;5080507;28;20017;-84
2024/01/29 07:53:45;;;;;;;87.82;42.03;;;;;;;-144.47;100.00;61586.06;5090915;28;20079;-82
2024/01/29 07:56:11;;;;;;;63.10;41.78;;;;;;;-144.47;100.00;61586.06;5090697;28;20020;-82
2024/01/29 07:58:42;;;;;;;63.40;42.33;;;;;;;-144.47;100.00;61586.06;5077131;28;20090;-84
2024/01/29 08:01:08;;;;;;;67.13;43.88;;;;;;;-144.47;100.00;61586.06;5042157;28;20017;-84
2024/01/29 08:03:46;;;;;;;69.97;42.70;;;;;;;-144.47;100.00;61586.06;5081755;28;20019;-84
2024/01/29 08:06:18;;;;;;;61.45;41.85;;;;;;;-144.47;100.00;61586.06;5080797;28;20021;-84
2024/01/29 08:09:05;;;;;;;66.60;43.45;;;;;;;-144.47;100.00;61586.06;5075356;28;20036;-84
2024/01/29 08:11:32;;;;;;;88.95;43.45;;;;;;;-144.47;100.00;61586.06;5093869;28;20033;-84
2024/01/29 08:14:02;;;;;;;149.20;43.67;;;;;;;-144.47;100.00;61586.06;5082327;28;20080;-85
2024/01/29 08:16:28;;;;;;;73.22;42.65;;;;;;;-144.47;100.00;61586.06;5089288;28;20032;-84
2024/01/29 08:18:57;;;;;;;122.80;44.10;;;;;;;-144.47;100.00;61586.06;5091850;28;20027;-85
2024/01/29 08:21:22;;;;;;;72.18;41.05;;;;;;;-144.47;100.00;61586.06;5095478;28;20016;-83
2024/01/29 08:23:55;;;;;;;120.07;43.10;;;;;;;-144.47;100.00;61586.06;5097281;28;20041;-84
2024/01/29 08:26:33;;;;;;;79.55;41.53;;;;;;;-144.47;100.00;61586.06;5096946;28;20021;-84
2024/01/29 08:28:59;;;;;;;;;;;;;;;-144.47;100.00;61586.06;5089552;28;20025;-85
2024/01/29 08:31:38;;;;;;;56.58;39.78;;;;;;;-144.47;100.00;61586.06;5078313;28;19923;-83
2024/01/29 08:34:09;;;;;;;65.40;42.50;;;;;;;-144.47;100.00;61586.06;5084854;28;20028;-84
2024/01/29 08:36:34;;;;;;;61.70;40.70;;;;;;;-144.47;100.00;61586.06;5089044;28;20028;-84
2024/01/29 08:39:04;;;;;;;61.65;42.55;;;;;;;-144.47;100.00;61586.06;5088968;28;20029;-85
2024/01/29 08:41:30;;;;;;;66.63;41.90;;;;;;;-144.47;100.00;61586.06;5087851;28;20019;-85
2024/01/29 08:44:03;;;;;;;59.78;40.22;;;;;;;-144.47;100.00;61586.06;5078214;28;20021;-85
2024/01/29 08:46:33;;;;;;;59.55;39.80;;;;;;;-144.47;100.00;61586.06;5079969;28;20021;-85
2024/01/29 08:49:05;;;;;;;64.72;39.47;;;;;;;-144.47;100.00;61586.06;5085011;28;20088;-85
2024/01/29 08:51:31;;;;;;;66.72;40.28;;;;;;;-144.47;100.00;61586.06;5051071;28;20087;-84
2024/01/29 08:54:10;;;;;;;96.00;40.83;;;;;;;-144.47;100.00;61586.06;5089964;28;20037;-84
2024/01/29 08:56:42;;;;;;;58.40;39.78;;;;;;;-144.47;100.00;61586.06;5093623;28;20046;-82
2024/01/29 08:59:15;;;;;;;61.05;41.20;;;;;;;-144.47;100.00;61586.06;5091058;28;20028;-83
2024/01/29 09:02:03;;;;;;;68.63;41.75;;;;;;;-144.47;100.00;61586.06;5046107;28;20025;-85
2024/01/29 09:04:34;;;;;;;69.82;42.40;;;;;;;-144.47;100.00;61586.06;5074970;28;20037;-84
2024/01/29 09:07:05;;;;;;;72.22;41.30;;;;;;;-144.47;100.00;61586.06;5068922;28;20093;-84
2024/01/29 09:09:31;;;;;;;61.85;41.40;;;;;;;-144.47;100.00;61586.06;5073910;28;20021;-85
2024/01/29 09:12:16;;;;;;;67.95;41.75;;;;;;;-144.47;100.00;61586.06;5053910;28;20017;-85
2024/01/29 09:14:42;;;;;;;62.22;40.38;;;;;;;-144.47;100.00;61586.06;5056964;28;20028;-85
2024/01/29 09:17:14;;;;;;;65.07;41.42;;;;;;;-144.47;100.00;61586.06;5072464;28;20033;-85
2024/01/29 09:19:47;;;;;;;68.85;41.47;;;;;;;-144.47;100.00;61586.06;5082287;28;20032;-85
2024/01/29 09:22:17;;;;;;;66.65;41.22;;;;;;;-144.47;100.00;61586.06;5087192;28;20370;-86
2024/01/29 09:24:42;;;;;;;70.22;41.58;;;;;;;-144.47;100.00;61586.06;5085482;28;20104;-85
2024/01/29 09:27:31;;;;;;;70.70;42.42;;;;;;;-144.47;100.00;61586.06;5070283;28;20037;-84
2024/01/29 09:30:01;;;;;;;70.43;42.80;;;;;;;-144.47;100.00;61586.06;5070796;28;20500;-84
2024/01/29 09:32:26;;;;;;;62.70;42.15;;;;;;;-144.47;100.00;61586.06;5081415;28;20063;-85
2024/01/29 09:34:58;;;;;;;71.15;41.30;;;;;;;-144.47;100.00;61586.06;5061780;28;20013;-85
2024/01/29 09:37:29;;;;;;;80.97;42.28;;;;;;;-144.47;100.00;61586.06;5055581;28;20052;-85
2024/01/29 09:39:55;;;;;;;70.63;43.20;;;;;;;-144.47;100.00;61586.06;5058964;28;20021;-85
2024/01/29 09:42:24;;;;;;;68.47;42.45;;;;;;;-144.47;100.00;61586.06;5086569;28;20016;-83
2024/01/29 09:45:17;;;;;;;73.07;44.38;;;;;;;-144.47;100.00;61586.06;5085828;28;20045;-85
2024/01/29 09:47:56;;;;;;;68.53;42.72;;;;;;;-144.47;100.00;61586.06;5067528;28;20017;-84
2024/01/29 09:50:44;;;;;;;67.93;44.33;;;;;;;-144.47;100.00;61586.06;5057709;28;20028;-84
2024/01/29 09:53:34;;;;;;;69.88;43.78;;;;;;;-144.47;100.00;61586.06;5074418;28;20032;-85
2024/01/29 09:56:05;;;;;;;64.63;44.40;;;;;;;-144.47;100.00;61586.06;5076756;28;20128;-85
2024/01/29 09:58:36;;;;;;;69.40;42.80;;;;;;;-144.47;100.00;61586.06;5065364;28;20025;-85
2024/01/29 10:01:26;;;;;;;69.30;44.72;;;;;;;-144.47;100.00;61586.06;5057779;28;20044;-86
2024/01/29 10:03:55;;;;;;;71.57;44.90;;;;;;;-144.47;100.00;61586.06;5091805;28;20034;-85
2024/01/29 10:06:21;;;;;;;69.95;44.13;;;;;;;-144.47;100.00;61586.06;5063655;28;20277;-80
2024/01/29 10:08:53;;;;;;;67.93;43.42;;;;;;;-144.47;100.00;61586.06;5088816;28;20020;-83
2024/01/29 10:11:24;;;;;;;67.68;43.67;;;;;;;-144.47;100.00;61586.06;5084393;28;20021;-83
2024/01/29 10:13:58;;;;;;;74.97;44.83;;;;;;;-144.47;100.00;61586.06;5083670;28;20032;-85
2024/01/29 10:16:44;;;;;;;70.55;45.28;;;;;;;-144.47;100.00;61586.06;5089208;28;20056;-79
2024/01/29 10:19:09;;;;;;;68.15;44.58;;;;;;;-144.47;100.00;61586.06;5084532;28;20019;-79
2024/01/29 10:21:47;;;;;;;68.60;44.42;;;;;;;-144.47;100.00;61586.06;5084345;28;20029;-85
2024/01/29 10:24:20;;;;;;;70.93;44.50;;;;;;;-144.47;100.00;61586.06;5149265;22;20035;-83
2024/01/29 10:26:46;;;;;;;76.72;47.00;;;;;;;-144.47;100.00;61586.06;5126392;28;20033;-84
2024/01/29 10:29:17;;;;;;;69.25;44.78;;;;;;;-144.47;100.00;61586.06;5136458;28;20040;-85
2024/01/29 10:31:48;;;;;;;77.75;44.97;;;;;;;-144.47;100.00;61586.06;5148993;22;20044;-85
2024/01/29 10:34:23;;;;;;;76.63;48.08;;;;;;;-144.47;100.00;61586.06;5054147;22;20038;-84
2024/01/29 10:37:00;;;;;;;69.18;45.33;;;;;;;-144.47;100.00;61586.06;5024473;28;20081;-85
2024/01/29 10:39:34;;;;;;;73.78;45.55;;;;;;;-144.47;100.00;61586.06;5219627;22;20045;-84
2024/01/29 10:42:12;;;;;;;71.00;45.13;;;;;;;-144.47;100.00;61586.06;5152938;22;20043;-83
2024/01/29 10:44:52;;;;;;;75.65;44.92;;;;;;;-144.47;100.00;61586.06;5034616;28;20046;-82
2024/01/29 10:47:47;;;;;;;74.30;45.88;;;;;;;-144.47;100.00;61586.06;5036772;28;20056;-83
2024/01/29 10:50:34;;;;;;;71.00;45.55;;;;;;;-144.47;100.00;61586.06;5030904;28;20049;-84
2024/01/29 10:53:22;;;;;;;73.85;46.60;;;;;;;-144.47;100.00;61586.06;5028004;28;20061;-83
2024/01/29 10:55:50;;;;;;;74.65;47.55;;;;;;;-144.47;100.00;61586.06;5016642;28;20050;-81
2024/01/29 10:58:20;;;;;;;75.97;46.60;;;;;;;-144.47;100.00;61586.06;5018641;28;20030;-83
2024/01/29 11:00:51;;;;;;;76.15;46.92;;;;;;;-144.47;100.00;61586.06;4998751;28;20052;-81
2024/01/29 11:03:23;;;;;;;72.20;45.78;;;;;;;-144.47;100.00;61586.06;5041104;28;20029;-81
2024/01/29 11:06:20;;;;;;;69.47;46.45;;;;;;;-144.47;100.00;61586.06;5016568;28;20019;-81